Time;durP1;ratioP1;P1;durP2;ratioP2;P2;SDS_P1;SDS_P2;PMS_P1;PMS_P2;Temp;Humidity;BMP_temperature;BMP_pressure;BME280_temperature;BME280_humidity;BME280_pressure;Samples;Min_cycle;Max_cycle;Signal;HPM_P1;HPM_P2
2021/12/08 00:01:35;;;;;;;46.78;7.55;;;;;;;23.23;50.29;98570.09;7306202;19;130599;-49
2021/12/08 00:04:01;;;;;;;20.13;4.75;;;;;;;23.33;50.24;98577.75;7309426;19;129569;-49
2021/12/08 00:06:26;;;;;;;17.70;4.55;;;;;;;23.35;49.69;98557.41;7308900;19;135151;-49
2021/12/08 00:09:06;;;;;;;27.75;6.00;;;;;;;23.57;49.79;98567.03;7309364;19;129737;-48
2021/12/08 00:14:15;;;;;;;19.35;4.28;;;;;;;23.84;48.91;98553.34;7309111;19;129417;-49
2021/12/08 00:16:41;;;;;;;22.98;4.75;;;;;;;23.91;48.45;98532.44;7310170;19;129262;-48
2021/12/08 00:19:07;;;;;;;28.00;6.07;;;;;;;24.00;48.58;98532.22;7312914;19;129779;-49
2021/12/08 00:21:32;;;;;;;25.35;5.25;;;;;;;24.05;48.39;98521.16;7317179;19;129671;-49
2021/12/08 00:23:57;;;;;;;28.95;5.82;;;;;;;24.05;48.15;98521.97;7315471;19;130661;-49
2021/12/08 00:26:22;;;;;;;11.07;4.20;;;;;;;24.04;48.44;98520.38;7312968;19;158579;-49
2021/12/08 00:28:48;;;;;;;29.90;6.05;;;;;;;23.88;48.31;98502.09;7314362;19;159669;-48
2021/12/08 00:31:13;;;;;;;18.80;4.45;;;;;;;23.83;48.57;98511.53;7314805;19;155964;-49
2021/12/08 00:33:38;;;;;;;35.77;6.20;;;;;;;23.69;48.72;98496.56;7316360;19;131720;-49
2021/12/08 00:36:06;;;;;;;13.88;3.95;;;;;;;23.64;48.74;98505.00;7314527;19;129293;-49
2021/12/08 00:38:32;;;;;;;29.67;5.28;;;;;;;23.56;49.70;98505.06;7316951;19;129306;-49
2021/12/08 00:40:57;;;;;;;22.48;4.65;;;;;;;23.43;49.41;98499.63;7314642;19;155202;-48
2021/12/08 00:43:23;;;;;;;26.43;5.37;;;;;;;23.32;50.24;98489.53;7315120;19;129085;-48
2021/12/08 00:45:49;;;;;;;18.20;4.22;;;;;;;23.29;49.95;98487.28;7313152;19;129660;-49
2021/12/08 00:48:14;;;;;;;20.90;4.47;;;;;;;23.21;50.72;98482.91;7314856;19;130437;-48
2021/12/08 00:50:40;;;;;;;26.80;5.18;;;;;;;23.18;50.67;98477.19;7314967;19;128980;-48
2021/12/08 00:53:06;;;;;;;17.20;4.28;;;;;;;23.12;50.74;98491.03;7315564;19;129391;-49
2021/12/08 00:55:32;;;;;;;25.65;5.28;;;;;;;23.06;50.71;98489.09;7313034;19;129715;-48
2021/12/08 00:57:58;;;;;;;19.27;4.67;;;;;;;23.03;50.53;98484.19;7315163;19;129290;-48
2021/12/08 01:00:28;;;;;;;23.50;4.70;;;;;;;23.01;50.99;98483.53;7315207;19;129641;-48
2021/12/08 01:02:53;;;;;;;23.00;5.10;;;;;;;23.01;50.84;98480.94;7315396;19;129245;-48
2021/12/08 01:05:24;;;;;;;29.10;5.43;;;;;;;22.99;51.37;98480.31;7312954;19;129534;-48
2021/12/08 01:07:50;;;;;;;24.15;4.90;;;;;;;23.00;51.36;98474.06;7316162;19;129704;-48
2021/12/08 01:10:19;;;;;;;19.30;4.03;;;;;;;23.07;50.47;98478.41;7315276;19;130011;-48
2021/12/08 01:12:46;;;;;;;23.27;4.95;;;;;;;23.16;50.74;98474.75;7314576;19;128924;-47
2021/12/08 01:15:12;;;;;;;19.05;4.38;;;;;;;23.23;50.40;98480.09;7314197;19;130243;-48
2021/12/08 01:17:38;;;;;;;32.30;6.03;;;;;;;23.33;50.20;98475.47;7314183;19;129155;-48
2021/12/08 01:20:05;;;;;;;;;;;;;;;23.40;49.63;98481.63;7315365;19;129245;-48
2021/12/08 01:22:30;;;;;;;25.73;5.25;;;;;;;23.54;49.28;98477.38;7312965;19;128879;-48
2021/12/08 01:24:55;;;;;;;18.63;4.63;;;;;;;23.67;49.32;98475.78;7311924;19;128956;-48
2021/12/08 01:27:21;;;;;;;29.77;5.68;;;;;;;23.66;49.35;98461.03;7313352;19;158352;-48
2021/12/08 01:29:48;;;;;;;19.80;4.40;;;;;;;23.80;48.86;98460.19;7311053;19;155139;-48
2021/12/08 01:32:14;;;;;;;22.95;4.90;;;;;;;23.91;48.93;98457.16;7315254;19;128984;-48
2021/12/08 01:34:39;;;;;;;33.95;5.65;;;;;;;24.01;48.67;98455.09;7313087;19;129529;-48
2021/12/08 01:37:04;;;;;;;19.70;4.37;;;;;;;24.07;48.16;98441.22;7312688;19;158556;-48
2021/12/08 01:39:29;;;;;;;20.42;5.22;;;;;;;24.09;48.34;98433.97;7313945;19;128949;-48
2021/12/08 01:41:55;;;;;;;20.23;4.68;;;;;;;24.02;48.58;98442.75;7311830;19;154579;-48
2021/12/08 01:47:05;;;;;;;27.25;4.90;;;;;;;23.86;48.66;98430.63;7314006;19;129420;-48
2021/12/08 01:49:31;;;;;;;27.37;5.57;;;;;;;23.79;49.25;98426.25;7313478;19;129198;-48
2021/12/08 01:51:56;;;;;;;23.83;5.25;;;;;;;23.69;49.39;98417.84;7314338;19;128868;-48
2021/12/08 01:54:22;;;;;;;23.17;4.82;;;;;;;23.55;49.86;98416.84;7312863;19;129023;-48
2021/12/08 01:56:48;;;;;;;18.02;3.97;;;;;;;23.48;49.91;98405.47;7312890;19;129253;-48
2021/12/08 01:59:13;;;;;;;22.52;4.80;;;;;;;23.39;49.57;98411.78;7312961;19;128960;-48
2021/12/08 02:01:42;;;;;;;44.55;6.57;;;;;;;23.30;49.76;98412.06;7312242;19;130393;-48
2021/12/08 02:04:08;;;;;;;31.17;5.30;;;;;;;23.21;50.69;98395.53;7311616;19;129490;-49
2021/12/08 02:06:36;;;;;;;17.67;4.57;;;;;;;23.12;50.59;98381.69;7311737;19;130409;-48
2021/12/08 02:09:06;;;;;;;22.10;4.70;;;;;;;23.06;51.08;98378.97;7313467;19;128945;-49
2021/12/08 02:11:31;;;;;;;23.17;4.47;;;;;;;23.04;51.17;98376.53;7312302;19;128780;-49
2021/12/08 02:14:00;;;;;;;23.98;5.32;;;;;;;23.01;51.01;98360.34;7312334;19;129095;-48
2021/12/08 02:16:26;;;;;;;32.88;5.43;;;;;;;23.04;51.25;98359.97;7312783;19;131073;-49
2021/12/08 02:18:52;;;;;;;31.90;5.87;;;;;;;22.98;50.99;98340.56;7312711;19;128975;-49
2021/12/08 02:21:22;;;;;;;18.93;4.10;;;;;;;23.04;50.61;98333.78;7313727;19;128985;-49
2021/12/08 02:23:48;;;;;;;37.72;6.53;;;;;;;23.11;50.69;98342.53;7312906;19;129773;-48
2021/12/08 02:26:13;;;;;;;17.77;4.10;;;;;;;23.16;50.73;98329.72;7311119;19;131158;-48
2021/12/08 02:28:39;;;;;;;37.63;6.50;;;;;;;23.29;50.07;98323.91;7311934;19;129420;-48
2021/12/08 02:31:08;;;;;;;18.13;4.07;;;;;;;23.34;50.42;98317.09;7313264;19;137654;-49
2021/12/08 02:49:48;;;;;;;25.55;4.72;;;;;;;24.00;48.63;98285.41;7312044;19;129383;-49
2021/12/08 02:52:14;;;;;;;19.25;3.92;;;;;;;24.02;48.18;98278.16;7312418;19;129351;-48
2021/12/08 02:54:42;;;;;;;31.17;5.30;;;;;;;24.02;48.28;98286.03;7310699;19;129542;-49
2021/12/08 02:57:09;;;;;;;16.77;4.20;;;;;;;23.96;48.31;98283.31;7312791;19;129566;-49
2021/12/08 02:59:36;;;;;;;19.77;4.88;;;;;;;23.88;48.54;98292.09;7311481;19;129992;-49
2021/12/08 03:02:01;;;;;;;;;;;;;;;23.76;49.05;98295.41;7313247;19;128969;-48
2021/12/08 03:04:27;;;;;;;26.52;5.10;;;;;;;23.61;49.14;98284.94;7310325;19;129603;-48
2021/12/08 03:06:53;;;;;;;12.07;3.63;;;;;;;23.56;49.86;98287.31;7312617;19;129643;-49
2021/12/08 03:09:18;;;;;;;21.08;4.70;;;;;;;23.49;49.25;98281.16;7310822;19;155268;-48
2021/12/08 03:11:49;;;;;;;26.75;4.68;;;;;;;23.38;50.04;98284.28;7309561;19;151907;-48
2021/12/08 03:14:15;;;;;;;17.52;4.50;;;;;;;23.30;50.29;98287.00;7310962;19;129376;-48
2021/12/08 03:16:43;;;;;;;;;;;;;;;23.19;50.31;98276.91;7311317;19;129806;-48
2021/12/08 03:19:09;;;;;;;13.25;3.53;;;;;;;23.12;50.50;98273.41;7311398;19;129670;-48
2021/12/08 03:21:34;;;;;;;40.60;5.70;;;;;;;23.07;51.04;98266.06;7310414;19;128901;-48
2021/12/08 03:24:26;;;;;;;22.92;4.68;;;;;;;23.05;51.32;98272.50;7309506;19;159485;-48
2021/12/08 03:29:27;;;;;;;26.63;5.07;;;;;;;23.04;51.29;98270.84;7311593;19;130145;-48
2021/12/08 03:31:54;;;;;;;21.60;4.22;;;;;;;23.07;50.62;98265.28;7311282;19;128794;-50
2021/12/08 03:34:23;;;;;;;23.35;4.50;;;;;;;23.07;50.59;98270.50;7309302;19;129739;-48
2021/12/08 03:36:49;;;;;;;23.08;4.88;;;;;;;23.15;50.96;98265.19;7311779;19;131362;-48
2021/12/08 03:39:14;;;;;;;23.48;4.82;;;;;;;23.23;50.25;98265.91;7309390;19;133471;-48
2021/12/08 03:41:39;;;;;;;28.50;4.70;;;;;;;23.31;50.29;98262.38;7311831;19;129077;-48
2021/12/08 03:44:06;;;;;;;17.55;3.95;;;;;;;23.38;50.18;98262.47;7308810;19;158256;-48
2021/12/08 03:46:38;;;;;;;27.92;4.72;;;;;;;23.44;49.34;98257.28;7308708;19;129729;-48
2021/12/08 03:49:06;;;;;;;17.02;4.22;;;;;;;23.55;49.97;98241.06;7309999;19;129438;-48
2021/12/08 03:51:31;;;;;;;29.60;5.32;;;;;;;23.72;49.26;98239.84;7309713;19;129178;-48
2021/12/08 03:53:57;;;;;;;26.52;5.47;;;;;;;24.06;48.75;98232.16;7315185;19;158233;-48
2021/12/08 03:56:22;;;;;;;20.15;4.30;;;;;;;24.41;47.64;98225.19;7314260;19;135189;-48
2021/12/08 03:58:47;;;;;;;18.30;3.92;;;;;;;24.87;46.91;98215.81;7315286;19;154155;-49
2021/12/08 04:01:13;;;;;;;22.15;4.50;;;;;;;25.28;45.23;98207.91;7317112;19;145865;-48
2021/12/08 04:03:39;;;;;;;28.70;5.47;;;;;;;25.80;43.87;98218.59;7314219;19;144913;-48
2021/12/08 04:06:15;;;;;;;;;;;;;;;26.26;43.17;98214.22;7315555;19;130364;-48
2021/12/08 04:08:44;;;;;;;30.83;4.85;;;;;;;26.74;42.16;98212.19;7316571;19;128884;-46
2021/12/08 04:11:11;;;;;;;20.38;3.92;;;;;;;27.04;41.81;98223.06;7317540;19;129069;-47
2021/12/08 04:13:48;;;;;;;29.35;4.97;;;;;;;27.31;40.89;98224.63;7316984;19;130611;-47
2021/12/08 04:16:18;;;;;;;17.63;3.70;;;;;;;27.56;40.61;98221.06;7315384;19;129889;-47
2021/12/08 04:18:43;;;;;;;22.58;4.30;;;;;;;27.79;39.75;98212.59;7316222;19;129300;-47
2021/12/08 04:21:09;;;;;;;17.67;3.53;;;;;;;27.80;39.87;98224.78;7316154;19;129831;-47
2021/12/08 04:23:38;;;;;;;33.72;5.43;;;;;;;27.80;40.33;98230.06;7316252;19;130153;-46
2021/12/08 04:26:18;;;;;;;19.80;3.78;;;;;;;27.76;39.78;98234.16;7314286;19;129569;-47
2021/12/08 04:28:44;;;;;;;33.75;5.13;;;;;;;27.63;39.98;98215.72;7315721;19;129291;-47
2021/12/08 04:31:19;;;;;;;15.83;3.33;;;;;;;27.43;40.69;98225.59;7315418;19;129312;-47
2021/12/08 04:33:47;;;;;;;34.67;5.68;;;;;;;27.13;41.73;98219.16;7315150;19;131661;-47
2021/12/08 04:36:15;;;;;;;18.00;3.70;;;;;;;26.87;42.11;98212.94;7315278;19;129195;-47
2021/12/08 04:38:45;;;;;;;35.97;5.25;;;;;;;26.59;42.30;98225.53;7314729;19;129819;-47
2021/12/08 04:41:18;;;;;;;17.80;3.55;;;;;;;26.30;43.48;98215.44;7316300;19;129106;-47
2021/12/08 04:43:54;;;;;;;36.20;6.00;;;;;;;25.94;43.43;98212.34;7315621;19;130093;-47
2021/12/08 04:52:18;;;;;;;22.48;4.47;;;;;;;25.28;45.56;98218.44;7315137;19;129117;-47
2021/12/08 05:06:04;;;;;;;26.60;4.40;;;;;;;24.32;47.96;98221.88;7314495;19;129813;-47
2021/12/08 05:08:40;;;;;;;21.83;4.07;;;;;;;24.17;48.62;98226.41;7315670;19;130068;-48
2021/12/08 05:11:08;;;;;;;17.35;3.70;;;;;;;24.01;48.67;98224.03;7317372;19;129278;-48
2021/12/08 05:13:34;;;;;;;27.83;4.40;;;;;;;23.88;49.32;98213.34;7315775;19;128897;-47
2021/12/08 05:15:59;;;;;;;15.15;3.25;;;;;;;23.84;49.36;98217.38;7314581;19;129956;-46
2021/12/08 05:18:35;;;;;;;17.70;3.70;;;;;;;23.77;49.37;98227.00;7315660;19;129275;-47
2021/12/08 05:21:04;;;;;;;17.90;3.45;;;;;;;23.72;50.55;98231.97;7315395;19;129000;-46
2021/12/08 05:23:48;;;;;;;19.25;3.95;;;;;;;23.66;49.95;98240.59;7316284;19;128709;-46
2021/12/08 05:26:20;;;;;;;16.00;3.55;;;;;;;23.63;50.25;98240.97;7313167;19;130692;-48
2021/12/08 05:28:48;;;;;;;23.75;4.03;;;;;;;23.61;50.53;98229.84;7316373;19;129238;-48
2021/12/08 05:31:21;;;;;;;24.85;4.03;;;;;;;23.44;51.02;98217.13;7315418;19;129020;-46
2021/12/08 05:33:47;;;;;;;28.35;5.00;;;;;;;23.51;51.28;98231.97;7311143;19;130322;-47
2021/12/08 05:36:14;;;;;;;14.85;3.40;;;;;;;23.44;50.68;98240.72;7310126;19;130469;-47
2021/12/08 05:38:41;;;;;;;27.52;4.63;;;;;;;23.41;50.46;98234.06;7312948;19;129682;-47
2021/12/08 05:41:12;;;;;;;13.13;2.90;;;;;;;23.26;50.71;98241.09;7311374;19;128829;-47
2021/12/08 05:43:38;;;;;;;36.08;5.32;;;;;;;23.32;50.35;98250.88;7312319;19;129524;-46
2021/12/08 05:46:04;;;;;;;14.43;3.40;;;;;;;23.34;50.65;98256.78;7311644;19;129157;-47
2021/12/08 05:48:32;;;;;;;31.93;5.07;;;;;;;23.32;50.86;98255.34;7313161;19;132085;-46
2021/12/08 05:51:12;;;;;;;22.90;4.15;;;;;;;23.39;50.89;98257.03;7314675;19;129362;-46
2021/12/08 05:53:41;;;;;;;23.33;4.15;;;;;;;23.45;50.29;98253.69;7314270;19;128995;-46
2021/12/08 05:56:07;;;;;;;29.73;4.55;;;;;;;23.52;50.27;98249.31;7311090;19;129782;-47
2021/12/08 05:58:34;;;;;;;33.50;4.93;;;;;;;23.81;48.86;98266.81;7313856;19;129358;-46
2021/12/08 06:01:04;;;;;;;;;;;;;;;23.98;49.00;98266.41;7312739;19;131184;-46
2021/12/08 06:03:30;;;;;;;26.55;4.43;;;;;;;24.25;48.05;98257.78;7311464;19;129534;-46
2021/12/08 06:05:56;;;;;;;31.43;4.60;;;;;;;24.45;47.80;98257.94;7309445;19;129426;-47
2021/12/08 06:08:22;;;;;;;26.60;4.38;;;;;;;24.61;47.07;98259.47;7310668;19;129131;-48
2021/12/08 06:10:48;;;;;;;21.88;3.90;;;;;;;24.78;46.94;98258.19;7313633;19;129336;-47
2021/12/08 06:13:16;;;;;;;17.27;3.47;;;;;;;24.92;46.17;98262.56;7312216;19;129176;-46
2021/12/08 06:15:45;;;;;;;30.80;4.63;;;;;;;25.05;45.79;98250.31;7309376;19;129846;-47
2021/12/08 06:18:11;;;;;;;17.17;3.40;;;;;;;25.19;46.18;98256.41;7312955;19;129318;-48
2021/12/08 06:20:37;;;;;;;27.15;4.18;;;;;;;25.31;45.88;98249.59;7314119;19;128939;-48
2021/12/08 06:23:05;;;;;;;16.97;3.10;;;;;;;25.34;45.53;98246.56;7313404;19;128974;-48
2021/12/08 06:25:31;;;;;;;21.85;3.72;;;;;;;25.47;45.24;98257.19;7310576;19;132113;-48
2021/12/08 06:27:56;;;;;;;24.70;4.43;;;;;;;25.51;45.16;98255.78;7312476;19;129251;-47
2021/12/08 06:30:26;;;;;;;17.38;3.53;;;;;;;25.54;44.92;98253.56;7312683;19;128781;-47
2021/12/08 06:32:52;;;;;;;26.95;4.88;;;;;;;25.58;45.41;98246.91;7312075;19;128984;-47
2021/12/08 06:35:28;;;;;;;27.58;4.22;;;;;;;25.64;44.46;98240.84;7310557;19;131010;-46
2021/12/08 06:37:54;;;;;;;20.98;3.95;;;;;;;25.55;44.71;98220.97;7312545;19;130087;-47
2021/12/08 06:40:22;;;;;;;22.98;3.75;;;;;;;25.65;44.42;98236.41;7314335;19;129891;-47
2021/12/08 06:42:50;;;;;;;100.65;13.27;;;;;;;25.62;44.65;98232.34;7306186;19;154105;-48
2021/12/08 06:45:20;;;;;;;17.65;3.28;;;;;;;25.59;45.24;98234.56;7310708;19;130556;-47
2021/12/08 06:47:49;;;;;;;29.75;4.60;;;;;;;25.57;44.87;98237.38;7312532;19;129628;-46
2021/12/08 06:50:22;;;;;;;39.75;5.88;;;;;;;25.56;44.99;98243.66;7299578;19;129531;-47
2021/12/08 06:52:47;;;;;;;156.25;20.60;;;;;;;25.45;41.92;98246.84;7292557;19;129641;-37
2021/12/08 06:55:19;;;;;;;41.33;7.05;;;;;;;25.23;40.73;98247.13;7299141;19;130905;-39
2021/12/08 06:57:48;;;;;;;42.80;7.00;;;;;;;25.24;42.87;98254.84;7306546;19;129845;-38
2021/12/08 07:00:23;;;;;;;30.38;5.22;;;;;;;25.18;43.88;98249.53;7310778;19;129471;-38
2021/12/08 07:03:17;;;;;;;21.33;4.20;;;;;;;25.12;43.93;98250.34;7306239;19;130377;-39
2021/12/08 07:06:04;;;;;;;25.55;5.03;;;;;;;25.06;44.60;98251.09;7308166;19;130511;-38
2021/12/08 07:08:28;;;;;;;24.70;5.18;;;;;;;24.98;44.48;98259.97;7310069;19;130180;-40
2021/12/08 07:10:56;;;;;;;19.95;4.38;;;;;;;24.91;45.32;98260.91;7308167;19;129742;-40
2021/12/08 07:13:25;;;;;;;20.50;4.63;;;;;;;24.86;45.51;98252.81;7309436;19;129086;-41
2021/12/08 07:15:57;;;;;;;33.47;5.78;;;;;;;24.78;45.28;98247.69;7308394;19;130213;-40
2021/12/08 07:18:39;;;;;;;34.05;5.63;;;;;;;24.56;46.22;98246.09;7305054;19;129622;-40
2021/12/08 07:21:08;;;;;;;17.08;3.90;;;;;;;24.48;46.20;98243.63;7308470;19;129779;-40
2021/12/08 07:23:38;;;;;;;24.45;4.53;;;;;;;24.46;46.39;98255.13;7307206;19;129689;-39
2021/12/08 07:26:08;;;;;;;17.85;3.78;;;;;;;24.29;46.89;98253.78;7307950;19;130343;-39
2021/12/08 07:28:34;;;;;;;25.55;4.78;;;;;;;24.21;47.49;98260.97;7316402;19;129587;-37
2021/12/08 07:31:09;;;;;;;18.40;4.20;;;;;;;24.10;47.66;98259.66;7315350;19;129213;-38
2021/12/08 07:33:35;;;;;;;17.25;4.03;;;;;;;24.03;47.60;98253.53;7314746;19;128959;-40
2021/12/08 07:36:05;;;;;;;18.53;4.13;;;;;;;23.95;48.41;98250.16;7317018;19;129133;-40
2021/12/08 07:38:32;;;;;;;18.42;4.10;;;;;;;23.90;48.20;98242.88;7316682;19;130272;-40
2021/12/08 07:41:10;;;;;;;35.15;5.55;;;;;;;23.84;48.57;98237.56;7317041;19;129308;-38
2021/12/08 07:43:42;;;;;;;25.85;4.53;;;;;;;23.77;48.25;98231.41;7316005;19;128878;-40
2021/12/08 07:46:13;;;;;;;18.83;4.00;;;;;;;23.74;48.47;98237.88;7314938;19;129571;-38
2021/12/08 07:48:47;;;;;;;26.42;4.63;;;;;;;23.69;49.02;98240.22;7317682;19;131026;-40
2021/12/08 07:51:14;;;;;;;28.48;4.82;;;;;;;23.66;49.28;98224.88;7316658;19;129407;-38
2021/12/08 07:53:41;;;;;;;38.03;5.85;;;;;;;23.61;49.24;98229.84;7312445;19;154407;-39
2021/12/08 07:56:08;;;;;;;;;;;;;;;23.57;49.01;98230.41;7317879;19;130291;-41
2021/12/08 07:58:36;;;;;;;21.02;4.28;;;;;;;23.59;49.10;98217.91;7317950;19;130269;-40
2021/12/08 08:01:13;;;;;;;20.75;4.20;;;;;;;23.58;49.26;98217.13;7315244;19;128911;-38
2021/12/08 08:03:43;;;;;;;27.93;4.93;;;;;;;23.57;49.68;98218.09;7313790;19;129069;-38
2021/12/08 08:06:14;;;;;;;16.48;3.47;;;;;;;23.60;49.36;98225.59;7315537;19;129331;-38
2021/12/08 08:08:39;;;;;;;26.17;4.38;;;;;;;23.64;49.59;98215.53;7315813;19;132542;-41
2021/12/08 08:11:10;;;;;;;23.98;4.65;;;;;;;23.59;49.07;98208.22;7316734;19;129183;-39
2021/12/08 08:13:36;;;;;;;24.23;4.72;;;;;;;23.65;48.96;98207.47;7312435;19;129416;-40
2021/12/08 08:16:09;;;;;;;17.73;4.00;;;;;;;23.67;48.83;98212.56;7316137;19;130464;-40
2021/12/08 08:18:40;;;;;;;28.92;4.57;;;;;;;23.72;48.70;98205.75;7315617;19;131123;-39
2021/12/08 08:21:12;;;;;;;8.13;2.70;;;;;;;23.75;49.07;98217.69;7316586;19;128967;-40
2021/12/08 08:23:38;;;;;;;28.48;4.85;;;;;;;23.78;49.02;98207.63;7312967;19;129328;-36
2021/12/08 08:26:08;;;;;;;17.33;3.53;;;;;;;23.81;49.19;98214.31;7314352;19;129828;-41
2021/12/08 08:28:34;;;;;;;26.45;4.22;;;;;;;23.83;48.43;98207.84;7317396;19;130089;-38
2021/12/08 08:31:06;;;;;;;14.27;3.50;;;;;;;23.89;48.27;98193.19;7315539;19;129339;-41
2021/12/08 08:33:33;;;;;;;24.27;4.18;;;;;;;23.88;48.21;98200.22;7313505;19;128871;-40
2021/12/08 08:36:04;;;;;;;21.98;4.18;;;;;;;23.99;48.07;98191.91;7315413;19;130238;-40
2021/12/08 08:38:41;;;;;;;27.60;4.57;;;;;;;24.05;48.29;98204.28;7313456;19;130560;-39
2021/12/08 08:41:30;;;;;;;6.90;2.53;;;;;;;24.01;48.98;98176.78;7315486;19;128919;-39
2021/12/08 08:44:02;;;;;;;24.55;4.93;;;;;;;24.10;48.44;98173.00;7313323;19;129091;-39
2021/12/08 08:46:33;;;;;;;19.50;3.85;;;;;;;24.10;47.82;98159.06;7314769;19;129192;-39
2021/12/08 08:49:08;;;;;;;15.57;3.33;;;;;;;24.14;48.42;98176.88;7314869;19;131289;-40
2021/12/08 08:51:40;;;;;;;21.85;3.83;;;;;;;24.20;48.16;98183.19;7316398;19;128918;-39
2021/12/08 08:54:21;;;;;;;16.88;3.35;;;;;;;24.23;47.75;98175.72;7310439;19;129313;-38
2021/12/08 08:57:00;;;;;;;28.15;4.57;;;;;;;24.21;47.97;98176.94;7315721;19;130713;-38
2021/12/08 08:59:34;;;;;;;22.88;3.83;;;;;;;24.26;47.78;98185.84;7313468;19;131446;-39
2021/12/08 09:02:07;;;;;;;8.85;2.78;;;;;;;24.27;47.76;98182.25;7315002;19;129715;-38
2021/12/08 09:04:35;;;;;;;31.65;4.78;;;;;;;24.26;47.55;98185.06;7310232;19;130170;-38
2021/12/08 09:07:06;;;;;;;19.25;3.40;;;;;;;24.25;48.17;98186.03;7312642;19;129540;-38
2021/12/08 09:09:38;;;;;;;18.65;3.42;;;;;;;24.21;48.22;98166.44;7315258;19;130373;-37
2021/12/08 09:12:17;;;;;;;14.90;3.15;;;;;;;24.21;47.90;98172.47;7314181;19;129430;-37
2021/12/08 09:14:52;;;;;;;28.83;4.68;;;;;;;24.28;47.80;98189.09;7312651;19;129138;-38
2021/12/08 09:17:25;;;;;;;22.55;3.72;;;;;;;24.28;48.19;98190.91;7313495;19;130211;-38
2021/12/08 09:20:01;;;;;;;23.30;3.88;;;;;;;24.34;47.40;98190.16;7314503;19;130782;-38
2021/12/08 09:22:34;;;;;;;35.55;5.43;;;;;;;24.32;47.87;98173.78;7312970;19;129244;-37
2021/12/08 09:25:09;;;;;;;16.73;3.45;;;;;;;24.34;47.45;98177.84;7312394;19;130076;-37
2021/12/08 09:27:46;;;;;;;29.48;4.40;;;;;;;24.31;47.96;98169.53;7312215;19;131084;-38
2021/12/08 09:30:19;;;;;;;7.07;2.47;;;;;;;24.36;47.24;98183.69;7314095;19;129426;-38
2021/12/08 09:32:58;;;;;;;25.25;3.83;;;;;;;24.37;47.85;98176.66;7313388;19;129075;-39
2021/12/08 09:35:30;;;;;;;27.05;4.50;;;;;;;24.39;47.36;98180.69;7312703;19;129275;-38
2021/12/08 09:38:03;;;;;;;19.25;3.40;;;;;;;24.39;47.44;98179.91;7314424;19;130146;-38
2021/12/08 09:40:40;;;;;;;21.33;3.58;;;;;;;24.35;48.16;98168.97;7314332;19;129816;-37
2021/12/08 09:43:12;;;;;;;18.93;3.63;;;;;;;24.35;47.80;98161.06;7312139;19;129002;-38
2021/12/08 09:45:51;;;;;;;26.75;4.30;;;;;;;24.34;47.51;98156.03;7312433;19;128854;-38
2021/12/08 09:48:17;;;;;;;15.50;2.78;;;;;;;24.41;47.67;98157.66;7312792;19;131235;-38
2021/12/08 09:50:43;;;;;;;32.28;4.70;;;;;;;24.36;48.02;98152.19;7261304;19;132714;-38
2021/12/08 09:53:08;;;;;;;14.73;2.97;;;;;;;24.39;47.38;98159.66;7311162;19;129501;-38
2021/12/08 09:55:35;;;;;;;34.57;4.73;;;;;;;24.38;48.07;98149.34;7311891;19;132768;-39
2021/12/08 09:58:02;;;;;;;16.50;2.97;;;;;;;24.39;47.97;98151.78;7313142;19;130375;-38
2021/12/08 10:00:33;;;;;;;28.02;4.53;;;;;;;24.39;47.65;98149.16;7311981;19;129596;-38
2021/12/08 10:03:00;;;;;;;20.20;3.47;;;;;;;24.27;47.99;98129.72;7311744;19;128828;-37
2021/12/08 10:05:29;;;;;;;20.90;3.67;;;;;;;24.37;47.78;98139.88;7311579;19;129432;-39
2021/12/08 10:07:55;;;;;;;14.57;3.25;;;;;;;24.35;48.35;98144.50;7312385;19;129014;-36
2021/12/08 10:10:21;;;;;;;20.13;3.60;;;;;;;24.35;47.79;98141.88;7311718;19;130058;-37
2021/12/08 10:12:46;;;;;;;20.73;3.60;;;;;;;24.35;47.74;98147.94;7310990;19;129174;-38
2021/12/08 10:15:18;;;;;;;20.08;3.55;;;;;;;24.33;48.26;98147.31;7309044;19;154086;-38
2021/12/08 10:17:44;;;;;;;17.35;3.35;;;;;;;24.33;48.08;98138.63;7312953;19;129578;-40
2021/12/08 10:20:18;;;;;;;19.50;3.33;;;;;;;24.30;47.62;98133.75;7312638;19;133579;-40
2021/12/08 10:23:07;;;;;;;24.80;3.65;;;;;;;24.35;47.94;98137.44;7311163;19;129346;-39
2021/12/08 10:25:36;;;;;;;28.90;5.03;;;;;;;24.32;48.23;98132.56;7310986;19;129134;-39
2021/12/08 10:28:17;;;;;;;18.88;3.53;;;;;;;24.34;47.52;98129.75;7313176;19;129687;-39
2021/12/08 10:30:48;;;;;;;28.50;3.60;;;;;;;24.30;47.79;98129.31;7311661;19;131186;-38
2021/12/08 10:33:59;;;;;;;18.50;3.42;;;;;;;24.32;47.59;98122.06;7310012;19;129871;-39
2021/12/08 10:39:09;;;;;;;19.95;3.38;;;;;;;24.31;47.83;98123.03;7308786;19;129402;-38
2021/12/08 10:41:57;;;;;;;26.65;3.78;;;;;;;24.29;48.08;98127.72;7311984;19;131644;-40
2021/12/08 10:44:40;;;;;;;22.83;3.55;;;;;;;24.26;48.42;98137.78;7308416;19;129732;-39
2021/12/08 10:47:07;;;;;;;18.27;2.85;;;;;;;24.27;48.49;98148.09;7308879;19;129219;-40
2021/12/08 10:54:49;;;;;;;37.13;4.50;;;;;;;24.27;48.40;98140.22;7306767;19;129746;-38
2021/12/08 10:57:32;;;;;;;19.40;3.10;;;;;;;24.22;48.06;98147.84;7309381;19;129542;-38
2021/12/08 11:00:12;;;;;;;17.17;3.40;;;;;;;24.13;48.52;98127.19;7311248;19;130614;-39
2021/12/08 11:02:46;;;;;;;28.65;4.35;;;;;;;24.24;48.21;98130.09;7307108;19;130253;-37
2021/12/08 11:05:23;;;;;;;16.73;2.92;;;;;;;24.19;48.58;98129.84;7311539;19;129615;-38
2021/12/08 11:08:00;;;;;;;;;;;;;;;24.18;47.87;98130.84;7310171;19;154889;-39
2021/12/08 11:10:25;;;;;;;18.73;3.00;;;;;;;24.13;48.23;98117.47;7312079;19;130150;-35
2021/12/08 11:12:54;;;;;;;22.35;3.63;;;;;;;24.22;48.25;98134.72;7308810;19;131164;-40
2021/12/08 11:15:22;;;;;;;24.85;3.63;;;;;;;24.20;48.03;98131.47;7311039;19;129493;-38
2021/12/08 11:17:48;;;;;;;29.50;3.95;;;;;;;24.20;48.29;98128.84;7311433;19;129402;-40
2021/12/08 11:20:15;;;;;;;5.40;1.83;;;;;;;24.19;48.58;98116.72;7311241;19;129000;-36
2021/12/08 11:22:44;;;;;;;33.88;4.85;;;;;;;24.19;48.31;98121.16;7309511;19;132268;-40
2021/12/08 11:25:21;;;;;;;14.90;2.88;;;;;;;24.17;48.35;98112.66;7310143;19;129601;-40
2021/12/08 11:27:47;;;;;;;20.90;3.25;;;;;;;24.21;48.74;98122.56;7307730;19;129224;-38
2021/12/08 11:30:15;;;;;;;17.43;2.90;;;;;;;24.22;48.46;98111.09;7310727;19;129567;-40
2021/12/08 11:32:40;;;;;;;26.27;3.78;;;;;;;24.22;47.98;98118.97;7310256;19;130310;-41
2021/12/08 11:35:19;;;;;;;25.75;3.63;;;;;;;24.23;48.25;98123.19;7308771;19;129172;-40
2021/12/08 11:37:44;;;;;;;26.77;3.90;;;;;;;24.23;48.06;98122.38;7309830;19;129070;-38
2021/12/08 11:40:18;;;;;;;26.42;4.13;;;;;;;24.18;48.67;98122.97;7310612;19;131198;-40
2021/12/08 11:42:43;;;;;;;45.85;5.90;;;;;;;24.21;48.37;98119.94;7307656;19;130508;-41
2021/12/08 11:45:14;;;;;;;12.68;2.50;;;;;;;24.18;48.61;98120.34;7308339;19;154232;-38
2021/12/08 11:47:42;;;;;;;40.75;5.28;;;;;;;24.22;48.26;98121.59;7305029;19;129286;-38
2021/12/08 11:50:12;;;;;;;14.82;2.60;;;;;;;24.22;47.92;98116.34;7278198;19;130173;-39
2021/12/08 11:52:37;;;;;;;30.92;4.30;;;;;;;24.23;48.29;98114.50;7305707;19;129666;-39
2021/12/08 11:55:17;;;;;;;20.10;3.13;;;;;;;24.19;47.92;98113.28;7308848;19;129101;-40
2021/12/08 11:57:47;;;;;;;21.20;3.40;;;;;;;24.20;48.03;98113.09;7310019;19;128848;-40
2021/12/08 12:00:32;;;;;;;16.92;2.88;;;;;;;24.10;48.61;98094.22;7309702;19;129530;-40
2021/12/08 12:03:02;;;;;;;25.13;3.95;;;;;;;24.21;47.99;98109.44;7307303;19;130490;-39
2021/12/08 12:05:48;;;;;;;24.67;3.80;;;;;;;24.23;48.55;98112.69;7308615;19;129397;-40
2021/12/08 12:08:18;;;;;;;13.70;2.63;;;;;;;24.23;48.52;98107.44;7309905;19;129734;-38
2021/12/08 12:10:46;;;;;;;24.17;3.95;;;;;;;24.26;48.48;98106.25;7309834;19;130219;-41
2021/12/08 12:13:12;;;;;;;14.43;2.40;;;;;;;24.20;48.92;98113.09;7311688;19;129346;-38
2021/12/08 12:15:44;;;;;;;22.73;3.38;;;;;;;24.20;48.53;98102.59;7316129;19;129141;-39
2021/12/08 12:18:10;;;;;;;7.35;2.25;;;;;;;24.21;48.25;98109.44;7315693;19;128946;-41
2021/12/08 12:20:43;;;;;;;22.90;3.30;;;;;;;24.19;47.82;98100.97;7316725;19;130039;-40